createdAt,value
2022-10-12T00:00:40.504Z,0.70
2022-10-12T00:03:08.419Z,0.70
2022-10-12T00:05:36.288Z,0.60
2022-10-12T00:08:04.233Z,0.70
2022-10-12T00:10:32.467Z,0.60
2022-10-12T00:13:00.399Z,0.60
2022-10-12T00:15:29.662Z,0.60
2022-10-12T00:17:57.567Z,0.53
2022-10-12T00:20:25.518Z,0.60
2022-10-12T00:22:53.464Z,0.50
2022-10-12T00:25:21.349Z,0.50
2022-10-12T00:27:49.258Z,0.50
2022-10-12T00:30:17.384Z,0.50
2022-10-12T00:32:46.658Z,0.40
2022-10-12T00:35:14.527Z,0.43
2022-10-12T00:37:42.402Z,0.60
2022-10-12T00:40:11.673Z,0.50
2022-10-12T00:42:39.694Z,0.50
2022-10-12T00:45:10.489Z,0.60
2022-10-12T00:47:41.360Z,0.60
2022-10-12T00:50:16.699Z,0.50
2022-10-12T00:52:48.115Z,0.50
2022-10-12T00:55:19.591Z,0.50
2022-10-12T00:57:49.454Z,0.50
2022-10-12T01:00:18.013Z,0.60
2022-10-12T01:02:49.056Z,0.40
2022-10-12T01:05:19.741Z,0.50
2022-10-12T01:07:48.112Z,0.50
2022-10-12T01:10:16.426Z,0.50
2022-10-12T01:12:46.167Z,0.50
2022-10-12T01:15:14.878Z,0.60
2022-10-12T01:17:52.535Z,0.50
2022-10-12T01:20:52.063Z,0.50
2022-10-12T01:23:44.436Z,0.50
2022-10-12T01:26:38.246Z,0.50
2022-10-12T01:29:21.512Z,0.50
2022-10-12T01:31:56.981Z,0.60
2022-10-12T01:34:34.405Z,0.60
2022-10-12T01:37:11.968Z,0.50
2022-10-12T01:39:46.533Z,0.60
2022-10-12T01:42:19.946Z,0.60
2022-10-12T01:44:47.800Z,0.50
2022-10-12T01:47:17.039Z,0.70
2022-10-12T01:49:45.166Z,0.50
2022-10-12T01:52:24.422Z,0.50
2022-10-12T01:55:06.757Z,0.50
2022-10-12T01:57:42.337Z,0.50
2022-10-12T02:00:12.665Z,0.50
2022-10-12T02:02:51.382Z,0.70
2022-10-12T02:05:28.302Z,0.60
2022-10-12T02:08:01.908Z,0.60
2022-10-12T02:10:34.377Z,0.50
2022-10-12T02:13:06.913Z,0.50
2022-10-12T02:15:37.692Z,0.70
2022-10-12T02:18:08.976Z,0.50
2022-10-12T02:20:39.876Z,0.40
2022-10-12T02:23:08.945Z,0.60
2022-10-12T02:25:37.061Z,0.70
2022-10-12T02:28:09.910Z,0.57
2022-10-12T02:30:44.867Z,0.50
2022-10-12T02:33:23.534Z,0.70
2022-10-12T02:35:57.355Z,0.57
2022-10-12T02:38:32.442Z,0.70
2022-10-12T02:41:05.961Z,0.60
2022-10-12T02:43:39.599Z,0.73
2022-10-12T02:46:11.262Z,0.63
2022-10-12T02:48:41.845Z,0.70
2022-10-12T02:51:12.208Z,0.70
2022-10-12T02:53:40.430Z,0.60
2022-10-12T02:56:11.747Z,0.70
2022-10-12T02:58:39.624Z,0.63
2022-10-12T03:01:07.689Z,0.80
2022-10-12T03:03:35.613Z,0.60
2022-10-12T03:06:05.057Z,0.57
2022-10-12T03:08:32.938Z,0.60
2022-10-12T03:11:03.518Z,0.60
2022-10-12T03:13:31.523Z,0.70
2022-10-12T03:16:03.328Z,0.63
2022-10-12T03:18:31.256Z,0.60
2022-10-12T03:20:59.189Z,0.53
2022-10-12T03:23:28.772Z,0.70
2022-10-12T03:25:56.866Z,0.60
2022-10-12T03:28:24.979Z,0.60
2022-10-12T03:30:52.895Z,0.60
2022-10-12T03:33:20.921Z,0.67
2022-10-12T03:35:49.347Z,0.60
2022-10-12T03:38:18.745Z,0.70
2022-10-12T03:40:48.565Z,0.50
2022-10-12T03:43:17.266Z,0.70
2022-10-12T03:45:45.138Z,0.77
2022-10-12T03:48:13.590Z,0.60
2022-10-12T03:50:41.664Z,0.70
2022-10-12T03:53:09.656Z,0.80
2022-10-12T03:55:37.652Z,0.80
2022-10-12T03:58:06.904Z,0.80
2022-10-12T04:00:34.840Z,0.60
2022-10-12T04:03:03.272Z,0.60
2022-10-12T04:05:31.198Z,0.67
2022-10-12T04:07:59.477Z,0.60
2022-10-12T04:10:27.408Z,0.80
2022-10-12T04:12:55.300Z,0.80
2022-10-12T04:15:24.650Z,0.70
2022-10-12T04:17:52.523Z,0.80
2022-10-12T04:20:20.452Z,0.70
2022-10-12T04:22:48.360Z,0.60
2022-10-12T04:25:16.388Z,0.60
2022-10-12T04:27:44.253Z,0.70
2022-10-12T04:30:13.683Z,0.70
2022-10-12T04:32:42.913Z,0.80
2022-10-12T04:35:10.790Z,0.73
2022-10-12T04:37:39.137Z,0.60
2022-10-12T04:40:08.546Z,0.77
2022-10-12T04:42:36.385Z,0.80
2022-10-12T04:45:04.244Z,0.70
2022-10-12T04:47:32.070Z,0.73
2022-10-12T04:50:01.408Z,0.83
2022-10-12T04:52:29.443Z,0.80
2022-10-12T04:54:57.351Z,0.70
2022-10-12T04:57:25.298Z,0.77
2022-10-12T04:59:53.189Z,0.80
2022-10-12T05:02:21.012Z,1.00
2022-10-12T05:04:48.917Z,0.90
2022-10-12T05:07:19.472Z,0.90
2022-10-12T05:09:47.331Z,0.90
2022-10-12T05:12:15.391Z,1.00
2022-10-12T05:14:44.299Z,0.93
2022-10-12T05:17:12.296Z,1.00
2022-10-12T05:19:40.225Z,1.00
2022-10-12T05:22:08.231Z,0.80
2022-10-12T05:24:39.839Z,1.00
2022-10-12T05:27:07.742Z,1.00
2022-10-12T05:29:35.677Z,0.80
2022-10-12T05:32:03.543Z,0.80
2022-10-12T05:34:31.949Z,1.00
2022-10-12T05:36:59.889Z,0.90
2022-10-12T05:39:27.758Z,0.90
2022-10-12T05:41:56.984Z,1.00
2022-10-12T05:44:24.937Z,1.10
2022-10-12T05:46:53.122Z,1.10
2022-10-12T05:49:21.042Z,1.03
2022-10-12T05:51:48.929Z,1.30
2022-10-12T05:54:17.020Z,1.07
2022-10-12T05:56:44.919Z,1.10
2022-10-12T05:59:14.594Z,1.10
2022-10-12T06:01:42.558Z,1.20
2022-10-12T06:04:11.026Z,1.30
2022-10-12T06:06:38.916Z,1.10
2022-10-12T06:09:06.774Z,1.20
2022-10-12T06:11:36.411Z,1.20
2022-10-12T06:14:04.958Z,1.20
2022-10-12T06:16:34.358Z,1.20
2022-10-12T06:19:02.363Z,1.20
2022-10-12T06:21:34.308Z,1.20
2022-10-12T06:24:02.993Z,1.27
2022-10-12T06:26:31.045Z,1.40
2022-10-12T06:29:00.705Z,1.30
2022-10-12T06:31:28.934Z,1.20
2022-10-12T06:33:58.192Z,1.40
2022-10-12T06:36:26.164Z,1.37
2022-10-12T06:38:54.003Z,1.30
2022-10-12T06:41:21.912Z,1.20
2022-10-12T06:43:49.799Z,1.50
2022-10-12T06:46:17.629Z,1.40
2022-10-12T06:48:45.494Z,1.40
2022-10-12T06:51:14.939Z,1.80
2022-10-12T06:53:42.954Z,1.70
2022-10-12T06:56:12.299Z,1.53
2022-10-12T06:58:40.429Z,1.60
2022-10-12T07:01:10.714Z,1.57
2022-10-12T07:03:38.694Z,1.70
2022-10-12T07:06:08.583Z,2.03
2022-10-12T07:08:38.429Z,1.90
2022-10-12T07:11:07.911Z,2.40
2022-10-12T07:13:35.820Z,2.00
2022-10-12T07:16:04.802Z,2.40
2022-10-12T07:18:32.739Z,2.20
2022-10-12T07:21:02.495Z,2.27
2022-10-12T07:23:31.947Z,2.40
2022-10-12T07:26:01.499Z,2.20
2022-10-12T07:28:29.933Z,2.47
2022-10-12T07:31:02.202Z,2.60
2022-10-12T07:33:34.178Z,2.43
2022-10-12T07:36:13.901Z,2.50
2022-10-12T07:38:45.382Z,2.73
2022-10-12T07:41:15.552Z,2.90
2022-10-12T07:43:43.790Z,2.90
2022-10-12T07:46:12.467Z,2.73
2022-10-12T07:48:45.694Z,2.93
2022-10-12T07:51:17.060Z,3.07
2022-10-12T07:53:44.895Z,3.30
2022-10-12T07:56:16.162Z,3.20
2022-10-12T07:58:45.072Z,3.70
2022-10-12T08:01:13.053Z,3.63
2022-10-12T08:03:42.445Z,3.60
2022-10-12T08:06:11.781Z,4.00
2022-10-12T08:08:40.174Z,3.90
2022-10-12T08:11:09.571Z,3.60
2022-10-12T08:13:39.275Z,4.50
2022-10-12T08:16:10.768Z,4.70
2022-10-12T08:18:38.695Z,4.10
2022-10-12T08:21:07.235Z,3.87
2022-10-12T08:23:36.110Z,3.67
2022-10-12T08:26:04.574Z,4.20
2022-10-12T08:28:33.977Z,4.10
2022-10-12T08:31:07.386Z,4.00
2022-10-12T08:33:35.220Z,3.43
2022-10-12T08:36:04.309Z,3.70
2022-10-12T08:38:32.492Z,4.27
2022-10-12T08:41:07.803Z,3.80
2022-10-12T08:43:49.224Z,3.90
2022-10-12T08:46:21.562Z,3.77
2022-10-12T08:48:53.093Z,3.60
2022-10-12T08:51:24.758Z,4.13
2022-10-12T08:53:55.834Z,4.00
2022-10-12T08:56:24.656Z,3.73
2022-10-12T08:58:54.264Z,4.20
2022-10-12T09:01:29.326Z,3.57
2022-10-12T09:04:12.044Z,3.90
2022-10-12T09:06:47.411Z,4.00
2022-10-12T09:09:40.049Z,3.97
2022-10-12T09:12:23.844Z,3.37
2022-10-12T09:14:54.832Z,3.60
2022-10-12T09:17:27.839Z,3.60
2022-10-12T09:20:03.640Z,3.33
2022-10-12T09:22:32.857Z,3.87
2022-10-12T09:25:03.120Z,3.43
2022-10-12T09:27:32.999Z,2.87
2022-10-12T09:30:05.039Z,3.50
2022-10-12T09:32:56.773Z,3.40
2022-10-12T09:35:25.361Z,2.73
2022-10-12T09:37:54.955Z,3.33
2022-10-12T09:40:25.869Z,3.00
2022-10-12T09:42:56.775Z,2.90
2022-10-12T09:45:24.737Z,3.00
2022-10-12T09:48:15.803Z,2.97
2022-10-12T09:50:48.876Z,2.97
2022-10-12T09:53:22.949Z,3.17
2022-10-12T09:56:11.782Z,3.17
2022-10-12T09:58:51.103Z,2.93
2022-10-12T10:01:23.328Z,3.00
2022-10-12T10:04:09.248Z,2.70
2022-10-12T10:06:38.439Z,2.67
2022-10-12T10:09:07.009Z,2.53
2022-10-12T10:11:35.669Z,2.63
2022-10-12T10:14:03.852Z,2.57
2022-10-12T10:16:32.248Z,3.13
2022-10-12T10:19:03.150Z,2.60
2022-10-12T10:21:35.076Z,2.60
2022-10-12T10:24:04.765Z,2.80
2022-10-12T10:26:53.435Z,2.73
2022-10-12T10:29:34.157Z,2.47
2022-10-12T10:32:14.140Z,2.50
2022-10-12T10:34:44.100Z,2.70
2022-10-12T10:37:18.581Z,2.77
2022-10-12T10:39:49.362Z,2.70
2022-10-12T10:42:21.469Z,2.63
2022-10-12T10:44:53.331Z,2.70
2022-10-12T10:47:21.301Z,2.30
2022-10-12T10:49:55.815Z,2.90
2022-10-12T10:52:26.552Z,2.67
2022-10-12T10:55:16.967Z,3.10
2022-10-12T10:57:51.956Z,2.73
2022-10-12T11:00:39.767Z,3.20
2022-10-12T11:03:15.650Z,2.80
2022-10-12T11:05:49.455Z,3.10
2022-10-12T11:08:21.434Z,3.10
2022-10-12T11:10:54.101Z,3.00
2022-10-12T11:13:25.514Z,3.43
2022-10-12T11:15:58.844Z,3.10
2022-10-12T11:18:32.240Z,3.43
2022-10-12T11:21:06.100Z,3.63
2022-10-12T11:23:43.646Z,5.10
2022-10-12T11:26:20.375Z,3.90
2022-10-12T11:28:48.551Z,3.47
2022-10-12T11:31:22.678Z,3.70
2022-10-12T11:33:53.669Z,3.40
2022-10-12T11:36:27.358Z,3.93
2022-10-12T11:39:05.927Z,3.80
2022-10-12T11:42:03.265Z,3.40
2022-10-12T11:44:41.578Z,4.27
2022-10-12T11:47:18.451Z,3.60
2022-10-12T11:49:52.313Z,3.47
2022-10-12T11:52:27.885Z,3.97
2022-10-12T11:55:03.038Z,3.50
2022-10-12T11:57:35.520Z,6.43
2022-10-12T12:00:06.792Z,4.30
2022-10-12T12:02:40.070Z,4.93
2022-10-12T12:05:16.460Z,4.53
2022-10-12T12:07:53.368Z,5.10
2022-10-12T12:11:04.375Z,4.70
2022-10-12T12:13:33.257Z,4.30
2022-10-12T12:16:27.553Z,4.00
2022-10-12T12:19:42.611Z,4.00
2022-10-12T12:22:23.597Z,4.80
2022-10-12T12:25:04.348Z,4.27
2022-10-12T12:27:36.266Z,4.20
2022-10-12T12:30:07.927Z,4.53
2022-10-12T12:32:45.890Z,5.30
2022-10-12T12:35:26.227Z,4.13
2022-10-12T12:38:17.162Z,5.10
2022-10-12T12:40:59.068Z,4.23
2022-10-12T12:44:01.365Z,4.70
2022-10-12T12:47:39.811Z,4.23
2022-10-12T12:50:00.657Z,4.00
2022-10-12T12:52:30.836Z,4.33
2022-10-12T12:55:26.971Z,4.70
2022-10-12T12:58:13.965Z,4.03
2022-10-12T13:00:54.573Z,3.80
2022-10-12T13:03:44.557Z,3.80
2022-10-12T13:06:52.529Z,3.70
2022-10-12T13:09:49.210Z,3.80
2022-10-12T13:12:44.227Z,4.03
2022-10-12T13:15:31.065Z,3.80
2022-10-12T13:18:51.926Z,4.33
2022-10-12T13:21:23.103Z,3.70
2022-10-12T13:23:54.862Z,3.70
2022-10-12T13:26:26.485Z,3.83
2022-10-12T13:28:56.105Z,3.93
2022-10-12T13:31:33.300Z,3.80
2022-10-12T13:34:06.862Z,4.03
2022-10-12T13:36:37.813Z,4.37
2022-10-12T13:39:16.334Z,4.17
2022-10-12T13:41:45.952Z,4.57
2022-10-12T13:44:22.801Z,4.20
2022-10-12T13:46:56.444Z,3.53
2022-10-12T13:49:26.293Z,3.80
2022-10-12T13:51:56.811Z,4.40
2022-10-12T13:54:26.842Z,3.70
2022-10-12T13:57:00.064Z,4.13
2022-10-12T13:59:31.298Z,4.17
2022-10-12T14:02:02.355Z,3.40
2022-10-12T14:04:32.439Z,3.77
2022-10-12T14:07:04.206Z,3.90
2022-10-12T14:09:42.403Z,3.80
2022-10-12T14:12:11.442Z,3.70
2022-10-12T14:14:41.604Z,3.23
2022-10-12T14:17:16.068Z,3.57
2022-10-12T14:19:46.755Z,3.37
2022-10-12T14:22:22.064Z,3.80
2022-10-12T14:24:50.766Z,3.60
2022-10-12T14:27:25.727Z,3.47
2022-10-12T14:30:04.737Z,3.73
2022-10-12T14:33:11.784Z,3.70
2022-10-12T14:35:42.251Z,3.80
2022-10-12T14:38:38.663Z,4.27
2022-10-12T14:41:35.844Z,3.60
2022-10-12T14:44:11.529Z,3.90
2022-10-12T14:46:41.721Z,3.83
2022-10-12T14:49:18.490Z,3.77
2022-10-12T14:51:47.344Z,3.90
2022-10-12T14:54:15.238Z,3.97
2022-10-12T14:56:43.198Z,4.30
2022-10-12T14:59:11.176Z,4.87
2022-10-12T15:01:42.046Z,4.50
2022-10-12T15:04:13.456Z,4.10
2022-10-12T15:06:43.354Z,3.97
2022-10-12T15:09:12.773Z,4.03
2022-10-12T15:11:40.713Z,4.30
2022-10-12T15:14:10.751Z,4.03
2022-10-12T15:16:39.100Z,4.20
2022-10-12T15:19:07.044Z,4.67
2022-10-12T15:21:36.340Z,4.73
2022-10-12T15:24:04.179Z,4.80
2022-10-12T15:26:32.309Z,4.73
2022-10-12T15:29:00.223Z,4.63
2022-10-12T15:31:28.161Z,3.87
2022-10-12T15:33:55.992Z,4.20
2022-10-12T15:36:23.891Z,4.73
2022-10-12T15:38:53.116Z,4.17
2022-10-12T15:41:28.282Z,4.83
2022-10-12T15:43:56.095Z,4.57
2022-10-12T15:46:23.977Z,3.80
2022-10-12T15:48:51.891Z,4.40
2022-10-12T15:51:22.801Z,4.03
2022-10-12T15:53:51.149Z,5.00
2022-10-12T15:56:21.116Z,5.20
2022-10-12T15:58:49.321Z,4.87
2022-10-12T16:01:18.747Z,5.33
2022-10-12T16:03:46.837Z,5.07
2022-10-12T16:06:14.815Z,5.73
2022-10-12T16:08:42.694Z,6.23
2022-10-12T16:11:15.169Z,6.13
2022-10-12T16:13:49.998Z,5.47
2022-10-12T16:16:21.929Z,6.00
2022-10-12T16:18:49.864Z,7.97
2022-10-12T16:21:17.762Z,5.10
2022-10-12T16:23:45.660Z,6.20
2022-10-12T16:26:15.817Z,4.90
2022-10-12T16:28:45.413Z,5.40
2022-10-12T16:31:16.022Z,5.03
2022-10-12T16:33:44.738Z,4.53
2022-10-12T16:36:15.163Z,5.43
2022-10-12T16:38:43.533Z,5.20
2022-10-12T16:41:12.740Z,5.90
2022-10-12T16:43:40.957Z,5.40
2022-10-12T16:46:10.465Z,5.60
2022-10-12T16:48:38.874Z,6.10
2022-10-12T16:51:11.162Z,5.60
2022-10-12T16:53:39.274Z,5.00
2022-10-12T16:56:07.693Z,4.90
2022-10-12T16:58:35.671Z,4.47
2022-10-12T17:01:11.787Z,4.27
2022-10-12T17:03:40.272Z,4.30
2022-10-12T17:06:09.101Z,4.00
2022-10-12T17:08:39.111Z,4.67
2022-10-12T17:11:17.538Z,5.40
2022-10-12T17:13:49.006Z,4.40
2022-10-12T17:16:37.300Z,4.33
2022-10-12T17:19:05.229Z,3.87
2022-10-12T17:21:33.296Z,4.13
2022-10-12T17:24:02.173Z,4.23
2022-10-12T17:26:30.307Z,4.40
2022-10-12T17:28:58.386Z,3.73
2022-10-12T17:31:28.742Z,4.07
2022-10-12T17:33:58.659Z,3.63
2022-10-12T17:36:28.336Z,3.97
2022-10-12T17:38:57.412Z,3.77
2022-10-12T17:41:25.768Z,4.03
2022-10-12T17:43:53.709Z,4.07
2022-10-12T17:46:22.757Z,3.93
2022-10-12T17:48:52.312Z,3.73
2022-10-12T17:51:20.396Z,4.30
2022-10-12T17:53:48.370Z,3.90
2022-10-12T17:56:16.874Z,4.30
2022-10-12T17:58:44.832Z,4.60
2022-10-12T18:01:15.275Z,3.60
2022-10-12T18:03:46.289Z,4.03
2022-10-12T18:06:17.930Z,4.30
2022-10-12T18:08:45.964Z,3.90
2022-10-12T18:11:14.728Z,4.00
2022-10-12T18:13:47.532Z,3.57
2022-10-12T18:16:17.100Z,3.67
2022-10-12T18:18:45.121Z,3.70
2022-10-12T18:21:16.103Z,3.50
2022-10-12T18:23:43.952Z,3.90
2022-10-12T18:26:13.960Z,4.03
2022-10-12T18:28:43.344Z,3.80
2022-10-12T18:31:18.317Z,3.70
2022-10-12T18:33:46.605Z,4.20
2022-10-12T18:36:17.210Z,4.13
2022-10-12T18:38:45.302Z,3.77
2022-10-12T18:41:14.644Z,3.63
2022-10-12T18:43:42.696Z,3.23
2022-10-12T18:46:11.862Z,3.80
2022-10-12T18:48:39.874Z,4.20
2022-10-12T18:51:09.981Z,4.50
2022-10-12T18:53:40.052Z,4.50
2022-10-12T18:56:09.461Z,5.00
2022-10-12T18:58:38.291Z,4.50
2022-10-12T19:01:10.048Z,3.83
2022-10-12T19:03:38.301Z,3.80
2022-10-12T19:06:08.770Z,3.90
2022-10-12T19:08:37.604Z,3.60
2022-10-12T19:11:08.293Z,4.00
2022-10-12T19:13:36.911Z,4.00
2022-10-12T19:16:07.680Z,3.97
2022-10-12T19:18:36.014Z,4.23
2022-10-12T19:21:06.276Z,4.10
2022-10-12T19:23:34.819Z,3.73
2022-10-12T19:26:09.685Z,3.97
2022-10-12T19:28:37.924Z,4.30
2022-10-12T19:31:10.347Z,4.23
2022-10-12T19:34:26.657Z,4.27
2022-10-12T19:36:54.738Z,4.13
2022-10-12T19:39:24.152Z,3.80
2022-10-12T19:41:53.786Z,4.33
2022-10-12T19:44:22.197Z,4.47
2022-10-12T19:46:51.465Z,4.10
2022-10-12T19:49:20.543Z,4.37
2022-10-12T19:51:48.634Z,4.60
2022-10-12T19:54:17.110Z,4.73
2022-10-12T19:56:45.205Z,4.33
2022-10-12T19:59:14.656Z,4.27
2022-10-12T20:01:47.851Z,3.80
2022-10-12T20:04:16.115Z,3.83
2022-10-12T20:06:44.067Z,4.00
2022-10-12T20:09:12.056Z,3.93
2022-10-12T20:11:40.025Z,4.00
2022-10-12T20:14:08.401Z,3.77
2022-10-12T20:16:38.303Z,4.00
2022-10-12T20:19:08.391Z,4.20
2022-10-12T20:21:37.380Z,4.90
2022-10-12T20:24:05.531Z,4.03
2022-10-12T20:26:33.430Z,4.60
2022-10-12T20:29:02.220Z,4.70
2022-10-12T20:31:30.197Z,4.17
2022-10-12T20:33:59.535Z,4.30
2022-10-12T20:36:29.212Z,4.47
2022-10-12T20:38:58.308Z,4.60
2022-10-12T20:41:27.641Z,4.70
2022-10-12T20:43:57.269Z,5.30
2022-10-12T20:46:25.685Z,4.33
2022-10-12T20:48:58.718Z,4.30
2022-10-12T20:51:30.698Z,4.37
2022-10-12T20:54:00.965Z,4.97
2022-10-12T20:56:29.235Z,5.17
2022-10-12T20:58:57.200Z,5.23
2022-10-12T21:01:26.668Z,5.07
2022-10-12T21:03:55.260Z,4.43
2022-10-12T21:06:23.625Z,4.40
2022-10-12T21:08:53.933Z,4.67
2022-10-12T21:11:22.495Z,4.60
2022-10-12T21:14:00.332Z,4.40
2022-10-12T21:16:28.225Z,5.07
2022-10-12T21:18:56.643Z,4.60
2022-10-12T21:21:24.755Z,4.77
2022-10-12T21:23:56.673Z,4.87
2022-10-12T21:26:26.832Z,4.80
2022-10-12T21:28:55.077Z,4.77
2022-10-12T21:31:27.036Z,5.00
2022-10-12T21:33:57.710Z,5.00
2022-10-12T21:36:27.562Z,5.67
2022-10-12T21:38:57.793Z,5.33
2022-10-12T21:41:27.781Z,4.83
2022-10-12T21:43:56.642Z,5.03
2022-10-12T21:46:26.319Z,5.20
2022-10-12T21:48:54.839Z,5.43
2022-10-12T21:51:24.555Z,5.17
2022-10-12T21:53:52.911Z,5.23
2022-10-12T21:56:23.777Z,5.00
2022-10-12T21:58:53.049Z,5.20
2022-10-12T22:01:22.778Z,5.30
2022-10-12T22:03:54.545Z,5.23
2022-10-12T22:06:24.065Z,5.23
2022-10-12T22:08:54.459Z,5.77
2022-10-12T22:11:24.390Z,5.27
2022-10-12T22:13:52.715Z,5.33
2022-10-12T22:16:20.551Z,5.47
2022-10-12T22:18:48.454Z,5.47
2022-10-12T22:21:19.188Z,5.53
2022-10-12T22:23:47.422Z,4.83
2022-10-12T22:26:17.515Z,5.53
2022-10-12T22:28:47.269Z,5.93
2022-10-12T22:31:17.768Z,5.97
2022-10-12T22:33:46.709Z,5.03
2022-10-12T22:36:15.614Z,5.87
2022-10-12T22:38:44.218Z,5.40
2022-10-12T22:41:13.914Z,5.33
2022-10-12T22:43:41.851Z,5.77
2022-10-12T22:46:11.363Z,5.70
2022-10-12T22:48:39.619Z,5.90
2022-10-12T22:51:08.565Z,5.10
2022-10-12T22:53:37.033Z,6.13
2022-10-12T22:56:07.252Z,5.80
2022-10-12T22:58:35.793Z,5.53
2022-10-12T23:01:05.121Z,5.80
2022-10-12T23:03:35.065Z,5.80
2022-10-12T23:06:03.492Z,5.53
2022-10-12T23:08:31.839Z,5.20
2022-10-12T23:11:04.955Z,5.87
2022-10-12T23:13:33.146Z,5.60
2022-10-12T23:16:04.720Z,4.97
2022-10-12T23:18:34.608Z,5.17
2022-10-12T23:21:05.429Z,5.67
2022-10-12T23:23:34.406Z,5.60
2022-10-12T23:26:03.895Z,5.20
2022-10-12T23:28:31.969Z,5.83
2022-10-12T23:30:59.942Z,5.80
2022-10-12T23:33:27.816Z,5.60
2022-10-12T23:35:58.293Z,5.77
2022-10-12T23:38:27.031Z,5.80
2022-10-12T23:40:54.925Z,5.53
2022-10-12T23:43:23.223Z,6.10
2022-10-12T23:45:51.526Z,5.90
2022-10-12T23:48:19.728Z,5.93
2022-10-12T23:50:47.621Z,6.57
2022-10-12T23:53:16.869Z,6.40
2022-10-12T23:55:44.840Z,6.37
2022-10-12T23:58:12.701Z,6.30
